sensor_id;sensor_type;location;lat;lon;timestamp;P1;durP1;ratioP1;P2;durP2;ratioP2
6864;SDS011;3471;49.678;8.388;2023-06-19T00:01:08;11.73;;;7.50;;
6864;SDS011;3471;49.678;8.388;2023-06-19T00:03:33;17.13;;;7.27;;
6864;SDS011;3471;49.678;8.388;2023-06-19T00:05:59;7.88;;;7.03;;
6864;SDS011;3471;49.678;8.388;2023-06-19T00:08:25;9.93;;;7.18;;
6864;SDS011;3471;49.678;8.388;2023-06-19T00:10:50;11.20;;;8.57;;
6864;SDS011;3471;49.678;8.388;2023-06-19T00:13:16;14.30;;;7.47;;
6864;SDS011;3471;49.678;8.388;2023-06-19T00:15:41;7.82;;;6.03;;
6864;SDS011;3471;49.678;8.388;2023-06-19T00:18:07;6.50;;;5.90;;
6864;SDS011;3471;49.678;8.388;2023-06-19T00:20:33;7.90;;;6.60;;
6864;SDS011;3471;49.678;8.388;2023-06-19T00:23:00;8.27;;;7.47;;
6864;SDS011;3471;49.678;8.388;2023-06-19T00:25:25;8.05;;;7.15;;
6864;SDS011;3471;49.678;8.388;2023-06-19T00:27:51;9.50;;;6.73;;
6864;SDS011;3471;49.678;8.388;2023-06-19T00:30:16;7.47;;;6.67;;
6864;SDS011;3471;49.678;8.388;2023-06-19T00:32:42;6.27;;;5.77;;
6864;SDS011;3471;49.678;8.388;2023-06-19T00:35:14;7.35;;;6.65;;
6864;SDS011;3471;49.678;8.388;2023-06-19T00:37:43;7.63;;;6.82;;
6864;SDS011;3471;49.678;8.388;2023-06-19T00:40:14;7.93;;;6.28;;
6864;SDS011;3471;49.678;8.388;2023-06-19T00:42:46;9.23;;;6.90;;
6864;SDS011;3471;49.678;8.388;2023-06-19T00:45:11;6.88;;;6.28;;
6864;SDS011;3471;49.678;8.388;2023-06-19T00:47:37;6.70;;;5.63;;
6864;SDS011;3471;49.678;8.388;2023-06-19T00:50:03;15.00;;;8.02;;
6864;SDS011;3471;49.678;8.388;2023-06-19T00:52:29;31.65;;;11.35;;
6864;SDS011;3471;49.678;8.388;2023-06-19T00:54:55;11.80;;;7.67;;
6864;SDS011;3471;49.678;8.388;2023-06-19T00:57:21;8.27;;;7.45;;
6864;SDS011;3471;49.678;8.388;2023-06-19T00:59:47;19.52;;;11.45;;
6864;SDS011;3471;49.678;8.388;2023-06-19T01:02:13;9.98;;;6.95;;
6864;SDS011;3471;49.678;8.388;2023-06-19T01:04:39;18.85;;;11.13;;
6864;SDS011;3471;49.678;8.388;2023-06-19T01:07:08;9.77;;;8.68;;
6864;SDS011;3471;49.678;8.388;2023-06-19T01:09:39;25.63;;;11.18;;
6864;SDS011;3471;49.678;8.388;2023-06-19T01:12:15;8.40;;;7.70;;
6864;SDS011;3471;49.678;8.388;2023-06-19T01:14:50;7.80;;;7.00;;
6864;SDS011;3471;49.678;8.388;2023-06-19T01:17:17;6.97;;;6.28;;
6864;SDS011;3471;49.678;8.388;2023-06-19T01:19:43;7.65;;;6.45;;
6864;SDS011;3471;49.678;8.388;2023-06-19T01:22:09;8.07;;;6.33;;
6864;SDS011;3471;49.678;8.388;2023-06-19T01:24:34;8.27;;;7.53;;
6864;SDS011;3471;49.678;8.388;2023-06-19T01:27:00;10.25;;;8.80;;
6864;SDS011;3471;49.678;8.388;2023-06-19T01:29:25;8.25;;;7.45;;
6864;SDS011;3471;49.678;8.388;2023-06-19T01:34:24;11.70;;;7.80;;
6864;SDS011;3471;49.678;8.388;2023-06-19T01:36:52;7.05;;;6.45;;
6864;SDS011;3471;49.678;8.388;2023-06-19T01:39:21;8.18;;;6.82;;
6864;SDS011;3471;49.678;8.388;2023-06-19T01:41:48;9.68;;;7.05;;
6864;SDS011;3471;49.678;8.388;2023-06-19T01:44:14;6.15;;;5.55;;
6864;SDS011;3471;49.678;8.388;2023-06-19T01:46:40;7.95;;;7.25;;
6864;SDS011;3471;49.678;8.388;2023-06-19T01:49:06;9.90;;;6.60;;
6864;SDS011;3471;49.678;8.388;2023-06-19T01:51:34;7.95;;;7.25;;
6864;SDS011;3471;49.678;8.388;2023-06-19T01:53:59;10.13;;;8.77;;
6864;SDS011;3471;49.678;8.388;2023-06-19T01:56:25;8.98;;;7.05;;
6864;SDS011;3471;49.678;8.388;2023-06-19T01:58:51;7.50;;;6.70;;
6864;SDS011;3471;49.678;8.388;2023-06-19T02:01:16;10.75;;;8.52;;
6864;SDS011;3471;49.678;8.388;2023-06-19T02:03:42;7.32;;;6.63;;
6864;SDS011;3471;49.678;8.388;2023-06-19T02:06:07;11.20;;;9.20;;
6864;SDS011;3471;49.678;8.388;2023-06-19T02:08:33;8.27;;;7.50;;
6864;SDS011;3471;49.678;8.388;2023-06-19T02:10:58;8.80;;;7.38;;
6864;SDS011;3471;49.678;8.388;2023-06-19T02:13:24;11.10;;;8.50;;
6864;SDS011;3471;49.678;8.388;2023-06-19T02:15:50;8.30;;;7.17;;
6864;SDS011;3471;49.678;8.388;2023-06-19T02:18:16;8.93;;;8.00;;
6864;SDS011;3471;49.678;8.388;2023-06-19T02:20:41;8.53;;;7.73;;
6864;SDS011;3471;49.678;8.388;2023-06-19T02:23:07;7.30;;;6.67;;
6864;SDS011;3471;49.678;8.388;2023-06-19T02:25:32;9.97;;;8.17;;
6864;SDS011;3471;49.678;8.388;2023-06-19T02:28:00;7.95;;;7.25;;
6864;SDS011;3471;49.678;8.388;2023-06-19T02:30:25;9.02;;;8.13;;
6864;SDS011;3471;49.678;8.388;2023-06-19T02:32:51;8.37;;;7.50;;
6864;SDS011;3471;49.678;8.388;2023-06-19T02:35:17;8.00;;;7.30;;
6864;SDS011;3471;49.678;8.388;2023-06-19T02:37:42;10.43;;;6.43;;
6864;SDS011;3471;49.678;8.388;2023-06-19T02:40:09;8.38;;;7.65;;
6864;SDS011;3471;49.678;8.388;2023-06-19T02:42:35;9.40;;;7.70;;
6864;SDS011;3471;49.678;8.388;2023-06-19T02:45:01;11.47;;;7.70;;
6864;SDS011;3471;49.678;8.388;2023-06-19T02:47:30;7.45;;;6.75;;
6864;SDS011;3471;49.678;8.388;2023-06-19T02:49:57;7.70;;;6.22;;
6864;SDS011;3471;49.678;8.388;2023-06-19T02:52:26;6.82;;;6.20;;
6864;SDS011;3471;49.678;8.388;2023-06-19T02:54:52;8.10;;;7.40;;
6864;SDS011;3471;49.678;8.388;2023-06-19T02:57:18;8.73;;;7.50;;
6864;SDS011;3471;49.678;8.388;2023-06-19T02:59:44;7.93;;;6.72;;
6864;SDS011;3471;49.678;8.388;2023-06-19T03:02:10;7.65;;;6.63;;
6864;SDS011;3471;49.678;8.388;2023-06-19T03:04:36;8.00;;;5.87;;
6864;SDS011;3471;49.678;8.388;2023-06-19T03:07:02;8.00;;;5.10;;
6864;SDS011;3471;49.678;8.388;2023-06-19T03:09:28;7.43;;;5.77;;
6864;SDS011;3471;49.678;8.388;2023-06-19T03:11:53;6.70;;;6.00;;
6864;SDS011;3471;49.678;8.388;2023-06-19T03:14:19;7.75;;;6.13;;
6864;SDS011;3471;49.678;8.388;2023-06-19T03:16:45;7.40;;;4.80;;
6864;SDS011;3471;49.678;8.388;2023-06-19T03:19:11;5.77;;;5.27;;
6864;SDS011;3471;49.678;8.388;2023-06-19T03:21:36;6.50;;;5.70;;
6864;SDS011;3471;49.678;8.388;2023-06-19T03:24:02;7.43;;;5.67;;
6864;SDS011;3471;49.678;8.388;2023-06-19T03:26:28;5.35;;;4.88;;
6864;SDS011;3471;49.678;8.388;2023-06-19T03:28:54;6.30;;;5.10;;
6864;SDS011;3471;49.678;8.388;2023-06-19T03:31:20;4.85;;;4.45;;
6864;SDS011;3471;49.678;8.388;2023-06-19T03:33:45;6.40;;;5.40;;
6864;SDS011;3471;49.678;8.388;2023-06-19T03:36:11;5.93;;;5.33;;
6864;SDS011;3471;49.678;8.388;2023-06-19T03:38:37;6.00;;;5.40;;
6864;SDS011;3471;49.678;8.388;2023-06-19T03:41:02;5.77;;;5.17;;
6864;SDS011;3471;49.678;8.388;2023-06-19T03:43:28;10.67;;;5.53;;
6864;SDS011;3471;49.678;8.388;2023-06-19T03:45:54;4.82;;;4.18;;
6864;SDS011;3471;49.678;8.388;2023-06-19T03:48:19;5.60;;;4.57;;
6864;SDS011;3471;49.678;8.388;2023-06-19T03:50:45;8.27;;;5.47;;
6864;SDS011;3471;49.678;8.388;2023-06-19T03:53:10;6.40;;;4.77;;
6864;SDS011;3471;49.678;8.388;2023-06-19T03:55:36;6.17;;;5.63;;
6864;SDS011;3471;49.678;8.388;2023-06-19T03:58:02;8.98;;;7.63;;
6864;SDS011;3471;49.678;8.388;2023-06-19T04:00:27;6.65;;;5.32;;
6864;SDS011;3471;49.678;8.388;2023-06-19T04:02:53;6.25;;;5.55;;
6864;SDS011;3471;49.678;8.388;2023-06-19T04:05:18;15.50;;;6.60;;
6864;SDS011;3471;49.678;8.388;2023-06-19T04:07:47;17.00;;;5.72;;
6864;SDS011;3471;49.678;8.388;2023-06-19T04:10:13;9.13;;;6.90;;
6864;SDS011;3471;49.678;8.388;2023-06-19T04:12:38;7.25;;;5.75;;
6864;SDS011;3471;49.678;8.388;2023-06-19T04:15:05;5.78;;;4.00;;
6864;SDS011;3471;49.678;8.388;2023-06-19T04:17:31;5.85;;;4.50;;
6864;SDS011;3471;49.678;8.388;2023-06-19T04:19:57;4.13;;;3.83;;
6864;SDS011;3471;49.678;8.388;2023-06-19T04:22:22;5.20;;;4.70;;
6864;SDS011;3471;49.678;8.388;2023-06-19T04:24:48;6.05;;;4.80;;
6864;SDS011;3471;49.678;8.388;2023-06-19T04:27:13;6.40;;;4.07;;
6864;SDS011;3471;49.678;8.388;2023-06-19T04:29:39;6.40;;;5.10;;
6864;SDS011;3471;49.678;8.388;2023-06-19T04:32:05;5.00;;;3.93;;
6864;SDS011;3471;49.678;8.388;2023-06-19T04:34:36;6.68;;;6.07;;
6864;SDS011;3471;49.678;8.388;2023-06-19T04:37:07;5.22;;;4.72;;
6864;SDS011;3471;49.678;8.388;2023-06-19T04:39:33;7.17;;;5.57;;
6864;SDS011;3471;49.678;8.388;2023-06-19T04:41:58;9.50;;;4.80;;
6864;SDS011;3471;49.678;8.388;2023-06-19T04:44:25;4.00;;;3.70;;
6864;SDS011;3471;49.678;8.388;2023-06-19T04:46:50;4.60;;;4.10;;
6864;SDS011;3471;49.678;8.388;2023-06-19T04:49:16;5.10;;;4.60;;
6864;SDS011;3471;49.678;8.388;2023-06-19T04:51:41;6.25;;;4.68;;
6864;SDS011;3471;49.678;8.388;2023-06-19T04:54:07;4.90;;;3.97;;
6864;SDS011;3471;49.678;8.388;2023-06-19T04:56:33;6.65;;;4.80;;
6864;SDS011;3471;49.678;8.388;2023-06-19T04:58:58;7.90;;;4.30;;
6864;SDS011;3471;49.678;8.388;2023-06-19T05:01:26;11.68;;;5.57;;
6864;SDS011;3471;49.678;8.388;2023-06-19T05:03:55;4.75;;;4.30;;
6864;SDS011;3471;49.678;8.388;2023-06-19T05:06:25;4.32;;;3.92;;
6864;SDS011;3471;49.678;8.388;2023-06-19T05:08:51;5.60;;;4.13;;
6864;SDS011;3471;49.678;8.388;2023-06-19T05:11:17;11.82;;;5.10;;
6864;SDS011;3471;49.678;8.388;2023-06-19T05:13:43;6.30;;;4.53;;
6864;SDS011;3471;49.678;8.388;2023-06-19T05:16:09;4.17;;;3.67;;
6864;SDS011;3471;49.678;8.388;2023-06-19T05:18:35;9.52;;;5.00;;
6864;SDS011;3471;49.678;8.388;2023-06-19T05:21:00;3.30;;;3.00;;
6864;SDS011;3471;49.678;8.388;2023-06-19T05:23:26;11.40;;;3.90;;
6864;SDS011;3471;49.678;8.388;2023-06-19T05:25:52;7.22;;;4.75;;
6864;SDS011;3471;49.678;8.388;2023-06-19T05:28:17;10.57;;;5.00;;
6864;SDS011;3471;49.678;8.388;2023-06-19T05:30:43;6.07;;;5.47;;
6864;SDS011;3471;49.678;8.388;2023-06-19T05:33:09;7.00;;;5.40;;
6864;SDS011;3471;49.678;8.388;2023-06-19T05:35:40;6.78;;;4.95;;
6864;SDS011;3471;49.678;8.388;2023-06-19T05:38:07;7.22;;;4.13;;
6864;SDS011;3471;49.678;8.388;2023-06-19T05:40:32;4.78;;;4.22;;
6864;SDS011;3471;49.678;8.388;2023-06-19T05:42:58;5.03;;;4.30;;
6864;SDS011;3471;49.678;8.388;2023-06-19T05:45:23;4.43;;;3.97;;
6864;SDS011;3471;49.678;8.388;2023-06-19T05:47:49;4.85;;;3.83;;
6864;SDS011;3471;49.678;8.388;2023-06-19T05:50:14;9.57;;;5.18;;
6864;SDS011;3471;49.678;8.388;2023-06-19T05:52:40;5.50;;;3.67;;
6864;SDS011;3471;49.678;8.388;2023-06-19T05:55:08;5.17;;;3.80;;
6864;SDS011;3471;49.678;8.388;2023-06-19T05:57:35;4.00;;;3.45;;
6864;SDS011;3471;49.678;8.388;2023-06-19T06:00:00;5.17;;;4.67;;
6864;SDS011;3471;49.678;8.388;2023-06-19T06:02:26;4.60;;;4.20;;
6864;SDS011;3471;49.678;8.388;2023-06-19T06:04:53;5.53;;;5.00;;
6864;SDS011;3471;49.678;8.388;2023-06-19T06:07:18;7.60;;;5.47;;
6864;SDS011;3471;49.678;8.388;2023-06-19T06:09:44;5.63;;;4.37;;
6864;SDS011;3471;49.678;8.388;2023-06-19T06:12:10;5.57;;;5.00;;
6864;SDS011;3471;49.678;8.388;2023-06-19T06:14:36;5.10;;;4.28;;
6864;SDS011;3471;49.678;8.388;2023-06-19T06:17:02;4.43;;;3.87;;
6864;SDS011;3471;49.678;8.388;2023-06-19T06:19:30;5.03;;;4.60;;
6864;SDS011;3471;49.678;8.388;2023-06-19T06:21:55;5.35;;;4.85;;
6864;SDS011;3471;49.678;8.388;2023-06-19T06:24:21;9.32;;;5.60;;
6864;SDS011;3471;49.678;8.388;2023-06-19T06:26:47;4.57;;;4.17;;
6864;SDS011;3471;49.678;8.388;2023-06-19T06:29:12;4.30;;;3.90;;
6864;SDS011;3471;49.678;8.388;2023-06-19T06:31:38;6.27;;;3.80;;
6864;SDS011;3471;49.678;8.388;2023-06-19T06:34:04;10.43;;;4.80;;
6864;SDS011;3471;49.678;8.388;2023-06-19T06:36:30;7.65;;;5.40;;
6864;SDS011;3471;49.678;8.388;2023-06-19T06:38:55;9.43;;;4.33;;
6864;SDS011;3471;49.678;8.388;2023-06-19T06:41:21;5.07;;;3.50;;
6864;SDS011;3471;49.678;8.388;2023-06-19T06:43:46;5.57;;;5.07;;
6864;SDS011;3471;49.678;8.388;2023-06-19T06:46:12;5.70;;;4.72;;
6864;SDS011;3471;49.678;8.388;2023-06-19T06:48:39;4.60;;;3.88;;
6864;SDS011;3471;49.678;8.388;2023-06-19T06:51:05;4.40;;;3.80;;
6864;SDS011;3471;49.678;8.388;2023-06-19T06:53:30;4.40;;;3.87;;
6864;SDS011;3471;49.678;8.388;2023-06-19T06:55:59;4.75;;;4.18;;
6864;SDS011;3471;49.678;8.388;2023-06-19T06:58:25;3.25;;;3.05;;
6864;SDS011;3471;49.678;8.388;2023-06-19T07:00:51;4.53;;;4.00;;
6864;SDS011;3471;49.678;8.388;2023-06-19T07:03:17;5.28;;;4.88;;
6864;SDS011;3471;49.678;8.388;2023-06-19T07:05:45;5.75;;;5.25;;
6864;SDS011;3471;49.678;8.388;2023-06-19T07:08:12;4.68;;;4.28;;
6864;SDS011;3471;49.678;8.388;2023-06-19T07:10:37;8.77;;;4.87;;
6864;SDS011;3471;49.678;8.388;2023-06-19T07:13:03;14.70;;;3.63;;
6864;SDS011;3471;49.678;8.388;2023-06-19T07:15:28;5.90;;;5.00;;
6864;SDS011;3471;49.678;8.388;2023-06-19T07:17:54;4.82;;;4.03;;
6864;SDS011;3471;49.678;8.388;2023-06-19T07:20:21;5.78;;;3.97;;
6864;SDS011;3471;49.678;8.388;2023-06-19T07:22:47;6.28;;;4.70;;
6864;SDS011;3471;49.678;8.388;2023-06-19T07:25:12;4.50;;;4.10;;
6864;SDS011;3471;49.678;8.388;2023-06-19T07:27:41;6.88;;;3.70;;
6864;SDS011;3471;49.678;8.388;2023-06-19T07:30:07;4.88;;;4.38;;
6864;SDS011;3471;49.678;8.388;2023-06-19T07:32:33;5.97;;;4.40;;
6864;SDS011;3471;49.678;8.388;2023-06-19T07:34:58;4.27;;;3.87;;
6864;SDS011;3471;49.678;8.388;2023-06-19T07:37:24;9.10;;;5.83;;
6864;SDS011;3471;49.678;8.388;2023-06-19T07:39:50;4.40;;;3.95;;
6864;SDS011;3471;49.678;8.388;2023-06-19T07:42:17;11.63;;;6.03;;
6864;SDS011;3471;49.678;8.388;2023-06-19T07:44:44;8.18;;;4.30;;
6864;SDS011;3471;49.678;8.388;2023-06-19T07:47:09;4.47;;;4.03;;
6864;SDS011;3471;49.678;8.388;2023-06-19T07:49:36;4.50;;;3.88;;
6864;SDS011;3471;49.678;8.388;2023-06-19T07:52:02;7.53;;;4.83;;
6864;SDS011;3471;49.678;8.388;2023-06-19T07:54:28;4.70;;;4.30;;
6864;SDS011;3471;49.678;8.388;2023-06-19T07:56:54;6.23;;;4.47;;
6864;SDS011;3471;49.678;8.388;2023-06-19T07:59:19;8.30;;;4.55;;
6864;SDS011;3471;49.678;8.388;2023-06-19T08:01:45;4.93;;;3.92;;
6864;SDS011;3471;49.678;8.388;2023-06-19T08:04:11;6.30;;;5.70;;
6864;SDS011;3471;49.678;8.388;2023-06-19T08:06:36;4.97;;;4.57;;
6864;SDS011;3471;49.678;8.388;2023-06-19T08:09:02;12.03;;;4.93;;
6864;SDS011;3471;49.678;8.388;2023-06-19T08:11:28;4.67;;;4.23;;
6864;SDS011;3471;49.678;8.388;2023-06-19T08:13:54;5.07;;;4.57;;
6864;SDS011;3471;49.678;8.388;2023-06-19T08:16:19;5.28;;;4.88;;
6864;SDS011;3471;49.678;8.388;2023-06-19T08:18:45;5.38;;;4.88;;
6864;SDS011;3471;49.678;8.388;2023-06-19T08:21:11;4.20;;;3.80;;
6864;SDS011;3471;49.678;8.388;2023-06-19T08:23:37;11.23;;;5.18;;
6864;SDS011;3471;49.678;8.388;2023-06-19T08:26:04;5.65;;;5.20;;
6864;SDS011;3471;49.678;8.388;2023-06-19T08:28:33;4.57;;;4.00;;
6864;SDS011;3471;49.678;8.388;2023-06-19T08:30:59;5.30;;;4.78;;
6864;SDS011;3471;49.678;8.388;2023-06-19T08:33:25;11.27;;;6.05;;
6864;SDS011;3471;49.678;8.388;2023-06-19T08:35:50;6.40;;;4.70;;
6864;SDS011;3471;49.678;8.388;2023-06-19T08:38:17;4.78;;;4.35;;
6864;SDS011;3471;49.678;8.388;2023-06-19T08:40:43;7.50;;;5.50;;
6864;SDS011;3471;49.678;8.388;2023-06-19T08:43:09;7.60;;;5.50;;
6864;SDS011;3471;49.678;8.388;2023-06-19T08:45:35;6.50;;;4.80;;
6864;SDS011;3471;49.678;8.388;2023-06-19T08:48:01;7.50;;;4.43;;
6864;SDS011;3471;49.678;8.388;2023-06-19T08:50:28;5.57;;;4.53;;
6864;SDS011;3471;49.678;8.388;2023-06-19T08:52:57;5.32;;;4.93;;
6864;SDS011;3471;49.678;8.388;2023-06-19T08:55:23;5.38;;;4.88;;
6864;SDS011;3471;49.678;8.388;2023-06-19T08:57:49;8.02;;;5.43;;
6864;SDS011;3471;49.678;8.388;2023-06-19T09:00:26;4.40;;;4.00;;
6864;SDS011;3471;49.678;8.388;2023-06-19T09:02:58;5.10;;;4.70;;
6864;SDS011;3471;49.678;8.388;2023-06-19T09:05:26;4.05;;;3.75;;
6864;SDS011;3471;49.678;8.388;2023-06-19T09:07:59;5.15;;;4.28;;
6864;SDS011;3471;49.678;8.388;2023-06-19T09:10:28;5.40;;;4.75;;
6864;SDS011;3471;49.678;8.388;2023-06-19T09:12:57;5.35;;;4.90;;
6864;SDS011;3471;49.678;8.388;2023-06-19T09:15:26;4.57;;;4.18;;
6864;SDS011;3471;49.678;8.388;2023-06-19T09:18:26;5.82;;;5.32;;
6864;SDS011;3471;49.678;8.388;2023-06-19T09:20:45;8.97;;;5.20;;
6864;SDS011;3471;49.678;8.388;2023-06-19T09:23:12;5.37;;;4.87;;
6864;SDS011;3471;49.678;8.388;2023-06-19T09:25:51;4.50;;;4.10;;
6864;SDS011;3471;49.678;8.388;2023-06-19T09:28:23;4.93;;;4.43;;
6864;SDS011;3471;49.678;8.388;2023-06-19T09:30:57;5.50;;;5.10;;
6864;SDS011;3471;49.678;8.388;2023-06-19T09:33:27;6.13;;;4.97;;
6864;SDS011;3471;49.678;8.388;2023-06-19T09:35:55;5.85;;;4.38;;
6864;SDS011;3471;49.678;8.388;2023-06-19T09:38:25;4.82;;;4.38;;
6864;SDS011;3471;49.678;8.388;2023-06-19T09:40:56;5.82;;;4.72;;
6864;SDS011;3471;49.678;8.388;2023-06-19T09:43:25;6.10;;;4.40;;
6864;SDS011;3471;49.678;8.388;2023-06-19T09:45:58;5.18;;;4.30;;
6864;SDS011;3471;49.678;8.388;2023-06-19T09:48:27;7.90;;;5.13;;
6864;SDS011;3471;49.678;8.388;2023-06-19T09:50:56;4.80;;;4.27;;
6864;SDS011;3471;49.678;8.388;2023-06-19T09:53:32;4.28;;;3.67;;
6864;SDS011;3471;49.678;8.388;2023-06-19T09:55:59;5.60;;;4.50;;
6864;SDS011;3471;49.678;8.388;2023-06-19T09:58:24;9.13;;;4.27;;
6864;SDS011;3471;49.678;8.388;2023-06-19T10:00:51;7.38;;;4.88;;
6864;SDS011;3471;49.678;8.388;2023-06-19T10:03:20;8.55;;;4.88;;
6864;SDS011;3471;49.678;8.388;2023-06-19T10:05:45;5.30;;;4.20;;
6864;SDS011;3471;49.678;8.388;2023-06-19T10:08:11;8.20;;;5.17;;
6864;SDS011;3471;49.678;8.388;2023-06-19T10:10:37;5.00;;;4.50;;
6864;SDS011;3471;49.678;8.388;2023-06-19T10:13:14;7.68;;;4.47;;
6864;SDS011;3471;49.678;8.388;2023-06-19T10:15:41;5.95;;;4.03;;
6864;SDS011;3471;49.678;8.388;2023-06-19T10:18:09;5.93;;;5.28;;
6864;SDS011;3471;49.678;8.388;2023-06-19T10:20:42;6.80;;;5.40;;
6864;SDS011;3471;49.678;8.388;2023-06-19T10:23:16;4.63;;;4.22;;
6864;SDS011;3471;49.678;8.388;2023-06-19T10:25:43;4.88;;;4.38;;
6864;SDS011;3471;49.678;8.388;2023-06-19T10:33:19;4.78;;;4.10;;
6864;SDS011;3471;49.678;8.388;2023-06-19T10:35:44;5.70;;;5.20;;
6864;SDS011;3471;49.678;8.388;2023-06-19T10:38:10;5.63;;;5.13;;
6864;SDS011;3471;49.678;8.388;2023-06-19T10:40:36;4.90;;;4.50;;
6864;SDS011;3471;49.678;8.388;2023-06-19T10:43:02;4.28;;;3.88;;
6864;SDS011;3471;49.678;8.388;2023-06-19T10:45:29;5.22;;;4.70;;
6864;SDS011;3471;49.678;8.388;2023-06-19T10:47:55;5.50;;;5.00;;
6864;SDS011;3471;49.678;8.388;2023-06-19T10:50:21;5.30;;;4.80;;
6864;SDS011;3471;49.678;8.388;2023-06-19T10:52:48;5.65;;;5.20;;
6864;SDS011;3471;49.678;8.388;2023-06-19T10:55:17;5.28;;;4.70;;
6864;SDS011;3471;49.678;8.388;2023-06-19T10:57:45;7.70;;;5.10;;
6864;SDS011;3471;49.678;8.388;2023-06-19T11:00:11;5.45;;;4.20;;
6864;SDS011;3471;49.678;8.388;2023-06-19T11:02:55;4.80;;;4.22;;
6864;SDS011;3471;49.678;8.388;2023-06-19T11:05:22;5.18;;;3.83;;
6864;SDS011;3471;49.678;8.388;2023-06-19T11:07:56;3.75;;;3.35;;
6864;SDS011;3471;49.678;8.388;2023-06-19T11:10:24;3.50;;;3.20;;
6864;SDS011;3471;49.678;8.388;2023-06-19T11:12:55;5.18;;;4.68;;
6864;SDS011;3471;49.678;8.388;2023-06-19T11:15:28;5.60;;;4.95;;
6864;SDS011;3471;49.678;8.388;2023-06-19T11:17:57;5.17;;;4.10;;
6864;SDS011;3471;49.678;8.388;2023-06-19T11:20:24;3.67;;;3.37;;
6864;SDS011;3471;49.678;8.388;2023-06-19T11:22:54;9.60;;;5.03;;
6864;SDS011;3471;49.678;8.388;2023-06-19T11:25:23;4.50;;;4.10;;
6864;SDS011;3471;49.678;8.388;2023-06-19T11:28:00;10.00;;;5.30;;
6864;SDS011;3471;49.678;8.388;2023-06-19T11:30:32;6.22;;;3.80;;
6864;SDS011;3471;49.678;8.388;2023-06-19T11:32:59;4.78;;;4.40;;
6864;SDS011;3471;49.678;8.388;2023-06-19T11:35:25;4.83;;;4.43;;
6864;SDS011;3471;49.678;8.388;2023-06-19T11:37:59;4.47;;;3.92;;
6864;SDS011;3471;49.678;8.388;2023-06-19T11:40:24;4.35;;;3.95;;
6864;SDS011;3471;49.678;8.388;2023-06-19T11:42:53;3.75;;;3.45;;
6864;SDS011;3471;49.678;8.388;2023-06-19T11:45:20;5.47;;;4.97;;
6864;SDS011;3471;49.678;8.388;2023-06-19T11:47:46;6.63;;;3.80;;
6864;SDS011;3471;49.678;8.388;2023-06-19T11:50:13;5.50;;;4.78;;
6864;SDS011;3471;49.678;8.388;2023-06-19T11:52:41;4.97;;;3.70;;
6864;SDS011;3471;49.678;8.388;2023-06-19T11:55:09;6.57;;;4.73;;
6864;SDS011;3471;49.678;8.388;2023-06-19T11:57:35;4.27;;;3.70;;
6864;SDS011;3471;49.678;8.388;2023-06-19T12:00:01;5.53;;;4.37;;
6864;SDS011;3471;49.678;8.388;2023-06-19T12:02:26;4.55;;;3.85;;
6864;SDS011;3471;49.678;8.388;2023-06-19T12:04:52;4.47;;;4.07;;
6864;SDS011;3471;49.678;8.388;2023-06-19T12:07:18;4.45;;;4.03;;
6864;SDS011;3471;49.678;8.388;2023-06-19T12:09:44;9.50;;;3.05;;
6864;SDS011;3471;49.678;8.388;2023-06-19T12:12:10;3.10;;;2.60;;
6864;SDS011;3471;49.678;8.388;2023-06-19T12:14:36;9.10;;;3.25;;
6864;SDS011;3471;49.678;8.388;2023-06-19T12:17:02;3.17;;;2.75;;
6864;SDS011;3471;49.678;8.388;2023-06-19T12:19:28;5.22;;;4.10;;
6864;SDS011;3471;49.678;8.388;2023-06-19T12:21:53;4.00;;;3.60;;
6864;SDS011;3471;49.678;8.388;2023-06-19T12:24:19;5.03;;;2.97;;
6864;SDS011;3471;49.678;8.388;2023-06-19T12:26:45;3.20;;;3.00;;
6864;SDS011;3471;49.678;8.388;2023-06-19T12:29:10;3.50;;;3.20;;
6864;SDS011;3471;49.678;8.388;2023-06-19T12:31:36;6.45;;;3.92;;
6864;SDS011;3471;49.678;8.388;2023-06-19T12:34:02;5.30;;;3.87;;
6864;SDS011;3471;49.678;8.388;2023-06-19T12:36:28;3.67;;;3.30;;
6864;SDS011;3471;49.678;8.388;2023-06-19T12:38:56;6.20;;;3.28;;
6864;SDS011;3471;49.678;8.388;2023-06-19T12:41:23;3.50;;;2.83;;
6864;SDS011;3471;49.678;8.388;2023-06-19T12:43:49;2.80;;;2.30;;
6864;SDS011;3471;49.678;8.388;2023-06-19T12:46:14;3.20;;;2.90;;
6864;SDS011;3471;49.678;8.388;2023-06-19T12:48:43;4.27;;;3.40;;
6864;SDS011;3471;49.678;8.388;2023-06-19T12:51:08;5.70;;;2.70;;
6864;SDS011;3471;49.678;8.388;2023-06-19T12:53:34;2.93;;;2.63;;
6864;SDS011;3471;49.678;8.388;2023-06-19T12:56:00;2.57;;;2.37;;
6864;SDS011;3471;49.678;8.388;2023-06-19T12:58:25;9.60;;;3.13;;
6864;SDS011;3471;49.678;8.388;2023-06-19T13:00:52;3.45;;;2.88;;
6864;SDS011;3471;49.678;8.388;2023-06-19T13:03:18;6.10;;;3.15;;
6864;SDS011;3471;49.678;8.388;2023-06-19T13:05:45;5.80;;;3.30;;
6864;SDS011;3471;49.678;8.388;2023-06-19T13:08:11;3.70;;;3.00;;
6864;SDS011;3471;49.678;8.388;2023-06-19T13:10:36;3.20;;;2.40;;
6864;SDS011;3471;49.678;8.388;2023-06-19T13:13:03;3.20;;;2.50;;
6864;SDS011;3471;49.678;8.388;2023-06-19T13:15:30;2.50;;;2.15;;
6864;SDS011;3471;49.678;8.388;2023-06-19T13:17:58;2.70;;;2.50;;
6864;SDS011;3471;49.678;8.388;2023-06-19T13:20:24;4.25;;;3.85;;
6864;SDS011;3471;49.678;8.388;2023-06-19T13:22:50;2.50;;;2.30;;
6864;SDS011;3471;49.678;8.388;2023-06-19T13:25:16;3.97;;;3.50;;
6864;SDS011;3471;49.678;8.388;2023-06-19T13:27:42;4.10;;;3.80;;
6864;SDS011;3471;49.678;8.388;2023-06-19T13:30:07;3.88;;;3.17;;
6864;SDS011;3471;49.678;8.388;2023-06-19T13:32:33;2.55;;;2.35;;
6864;SDS011;3471;49.678;8.388;2023-06-19T13:34:59;3.20;;;2.97;;
6864;SDS011;3471;49.678;8.388;2023-06-19T13:37:24;3.50;;;3.10;;
6864;SDS011;3471;49.678;8.388;2023-06-19T13:39:50;3.33;;;3.03;;
6864;SDS011;3471;49.678;8.388;2023-06-19T13:42:16;4.03;;;3.63;;
6864;SDS011;3471;49.678;8.388;2023-06-19T13:44:41;2.90;;;2.20;;
6864;SDS011;3471;49.678;8.388;2023-06-19T13:47:07;3.13;;;2.80;;
6864;SDS011;3471;49.678;8.388;2023-06-19T13:49:33;3.90;;;3.40;;
6864;SDS011;3471;49.678;8.388;2023-06-19T13:51:58;5.07;;;3.20;;
6864;SDS011;3471;49.678;8.388;2023-06-19T13:54:24;5.40;;;3.38;;
6864;SDS011;3471;49.678;8.388;2023-06-19T13:56:49;3.43;;;3.13;;
6864;SDS011;3471;49.678;8.388;2023-06-19T13:59:16;4.20;;;3.80;;
6864;SDS011;3471;49.678;8.388;2023-06-19T14:01:41;6.20;;;2.80;;
6864;SDS011;3471;49.678;8.388;2023-06-19T14:04:07;4.70;;;3.60;;
6864;SDS011;3471;49.678;8.388;2023-06-19T14:06:36;4.80;;;3.95;;
6864;SDS011;3471;49.678;8.388;2023-06-19T14:09:03;4.70;;;4.20;;
6864;SDS011;3471;49.678;8.388;2023-06-19T14:11:28;3.50;;;3.20;;
6864;SDS011;3471;49.678;8.388;2023-06-19T14:13:54;5.00;;;3.88;;
6864;SDS011;3471;49.678;8.388;2023-06-19T14:16:20;4.57;;;4.18;;
6864;SDS011;3471;49.678;8.388;2023-06-19T14:18:46;4.07;;;3.67;;
6864;SDS011;3471;49.678;8.388;2023-06-19T14:21:12;6.80;;;3.27;;
6864;SDS011;3471;49.678;8.388;2023-06-19T14:23:37;4.80;;;3.53;;
6864;SDS011;3471;49.678;8.388;2023-06-19T14:26:08;3.88;;;3.58;;
6864;SDS011;3471;49.678;8.388;2023-06-19T14:28:34;4.28;;;3.90;;
6864;SDS011;3471;49.678;8.388;2023-06-19T14:31:01;3.90;;;3.50;;
6864;SDS011;3471;49.678;8.388;2023-06-19T14:33:26;4.30;;;3.90;;
6864;SDS011;3471;49.678;8.388;2023-06-19T14:35:52;5.25;;;4.65;;
6864;SDS011;3471;49.678;8.388;2023-06-19T14:38:17;5.30;;;4.30;;
6864;SDS011;3471;49.678;8.388;2023-06-19T14:40:43;4.60;;;4.20;;
6864;SDS011;3471;49.678;8.388;2023-06-19T14:43:09;5.67;;;4.10;;
6864;SDS011;3471;49.678;8.388;2023-06-19T14:45:35;5.50;;;4.30;;
6864;SDS011;3471;49.678;8.388;2023-06-19T14:48:00;4.10;;;3.70;;
6864;SDS011;3471;49.678;8.388;2023-06-19T14:50:27;4.68;;;4.28;;
6864;SDS011;3471;49.678;8.388;2023-06-19T14:52:52;4.30;;;3.90;;
6864;SDS011;3471;49.678;8.388;2023-06-19T14:55:18;4.60;;;4.20;;
6864;SDS011;3471;49.678;8.388;2023-06-19T14:57:44;4.43;;;4.00;;
6864;SDS011;3471;49.678;8.388;2023-06-19T15:00:09;4.50;;;4.10;;
6864;SDS011;3471;49.678;8.388;2023-06-19T15:02:35;4.53;;;3.95;;
6864;SDS011;3471;49.678;8.388;2023-06-19T15:05:01;4.97;;;4.00;;
6864;SDS011;3471;49.678;8.388;2023-06-19T15:07:27;5.15;;;4.60;;
6864;SDS011;3471;49.678;8.388;2023-06-19T15:09:52;3.77;;;3.47;;
6864;SDS011;3471;49.678;8.388;2023-06-19T15:12:18;4.80;;;4.40;;
6864;SDS011;3471;49.678;8.388;2023-06-19T15:14:44;3.33;;;3.03;;
6864;SDS011;3471;49.678;8.388;2023-06-19T15:17:09;4.47;;;4.07;;
6864;SDS011;3471;49.678;8.388;2023-06-19T15:19:35;5.37;;;4.47;;